Time;durP1;ratioP1;P1;durP2;ratioP2;P2;SDS_P1;SDS_P2;PMS_P1;PMS_P2;Temp;Humidity;BMP_temperature;BMP_pressure;BME280_temperature;BME280_humidity;BME280_pressure;Samples;Min_cycle;Max_cycle;Signal;HPM_P1;HPM_P2
2023/10/16 00:01:29;;;;;;;5.05;2.38;;;;;;;8.28;65.17;100674.44;6073539;23;20021;-87
2023/10/16 00:03:56;;;;;;;4.85;2.30;;;;;;;8.28;65.05;100666.50;6097512;23;20450;-86
2023/10/16 00:06:24;;;;;;;4.82;2.22;;;;;;;8.22;65.15;100678.34;6122115;23;20009;-86
2023/10/16 00:08:57;;;;;;;5.43;2.63;;;;;;;8.21;65.07;100675.78;6121865;23;20028;-86
2023/10/16 00:11:24;;;;;;;4.88;2.15;;;;;;;8.12;65.22;100668.47;6120856;23;20025;-86
2023/10/16 00:13:52;;;;;;;4.93;2.70;;;;;;;8.15;65.49;100669.09;6145923;23;20044;-87
2023/10/16 00:16:23;;;;;;;4.22;2.20;;;;;;;8.06;65.56;100667.03;6121409;23;20454;-86
2023/10/16 00:18:53;;;;;;;2.85;2.30;;;;;;;8.15;65.71;100665.59;6073898;23;20089;-87
2023/10/16 00:21:21;;;;;;;3.88;2.50;;;;;;;8.15;65.57;100669.09;6121204;23;20092;-86
2023/10/16 00:23:48;;;;;;;6.63;2.72;;;;;;;8.10;66.07;100673.84;6121486;23;20021;-87
2023/10/16 00:26:21;;;;;;;5.10;2.90;;;;;;;8.17;66.07;100679.59;6121269;23;20453;-87
2023/10/16 00:29:08;;;;;;;6.28;3.00;;;;;;;8.12;66.52;100677.25;6123348;23;20037;-87
2023/10/16 00:31:42;;;;;;;4.60;2.63;;;;;;;8.12;66.68;100669.31;6124901;23;20045;-88
2023/10/16 00:34:10;;;;;;;5.80;2.90;;;;;;;8.11;66.86;100672.03;6122323;23;20396;-86
2023/10/16 00:36:37;;;;;;;4.30;2.10;;;;;;;8.06;67.05;100674.97;6120554;23;20338;-86
2023/10/16 00:39:14;;;;;;;4.32;2.85;;;;;;;8.07;67.03;100668.75;6120257;23;20025;-86
2023/10/16 00:41:46;;;;;;;3.58;2.67;;;;;;;8.14;66.65;100674.47;6121412;23;20021;-87
2023/10/16 00:44:17;;;;;;;6.88;3.00;;;;;;;8.06;66.89;100669.69;6121555;23;20033;-86
2023/10/16 00:46:48;;;;;;;4.45;2.65;;;;;;;8.11;66.73;100666.75;6145058;23;20346;-87
2023/10/16 00:49:18;;;;;;;4.20;2.67;;;;;;;8.10;66.75;100662.41;6097092;23;20839;-86
2023/10/16 00:51:47;;;;;;;4.25;3.15;;;;;;;8.09;66.63;100656.28;6097722;23;20021;-86
2023/10/16 00:54:19;;;;;;;7.07;3.08;;;;;;;8.00;66.97;100649.78;6097200;23;20072;-86
2023/10/16 00:56:51;;;;;;;5.18;2.70;;;;;;;8.02;66.75;100645.25;6097264;23;20041;-85
2023/10/16 00:59:18;;;;;;;4.15;2.53;;;;;;;8.05;66.53;100660.06;6121088;23;20088;-86
2023/10/16 01:01:46;;;;;;;4.90;2.40;;;;;;;8.01;66.74;100662.06;6073314;23;20044;-86
2023/10/16 01:04:13;;;;;;;7.75;3.15;;;;;;;7.96;66.89;100653.59;6120891;23;20325;-87
2023/10/16 01:06:41;;;;;;;4.32;2.72;;;;;;;8.00;66.97;100651.56;6121075;23;20033;-86
2023/10/16 01:09:08;;;;;;;4.68;2.85;;;;;;;7.99;66.95;100656.03;6096568;23;20326;-87
2023/10/16 01:11:38;;;;;;;6.53;2.90;;;;;;;8.05;67.05;100657.41;6096900;23;20100;-86
2023/10/16 01:14:06;;;;;;;9.20;3.70;;;;;;;8.05;67.22;100654.78;6121323;23;20029;-88
2023/10/16 01:16:33;;;;;;;4.50;2.67;;;;;;;8.09;67.06;100665.97;6096498;23;20080;-86
2023/10/16 01:19:01;;;;;;;6.05;2.35;;;;;;;8.06;66.75;100653.81;6096464;23;20025;-87
2023/10/16 01:21:31;;;;;;;3.20;2.60;;;;;;;8.05;66.57;100655.63;6121018;23;20095;-88
2023/10/16 01:24:32;;;;;;;4.53;2.33;;;;;;;8.05;66.46;100660.06;6121816;23;20072;-86
2023/10/16 01:26:52;;;;;;;2.97;2.40;;;;;;;8.00;66.80;100662.16;6116466;23;20025;-86
2023/10/16 01:29:20;;;;;;;7.90;4.03;;;;;;;7.99;66.34;100658.66;6121265;23;20030;-86
2023/10/16 01:31:52;;;;;;;3.80;2.90;;;;;;;8.02;66.78;100652.34;6072663;23;20021;-86
2023/10/16 01:34:22;;;;;;;3.15;2.85;;;;;;;7.92;67.09;100652.06;6097272;23;20025;-86
2023/10/16 01:36:51;;;;;;;4.75;2.80;;;;;;;7.89;66.67;100648.78;6097536;23;20029;-87
2023/10/16 01:42:11;;;;;;;4.07;2.53;;;;;;;7.82;66.51;100654.44;6119954;23;20017;-87
2023/10/16 01:44:39;;;;;;;5.78;3.38;;;;;;;7.85;66.73;100644.63;6122095;23;20462;-87
2023/10/16 01:47:13;;;;;;;6.20;3.22;;;;;;;7.76;66.91;100639.00;6096356;23;20025;-87
2023/10/16 01:49:47;;;;;;;5.32;2.70;;;;;;;7.75;66.47;100642.56;6073525;23;20096;-86
2023/10/16 01:52:14;;;;;;;3.33;2.17;;;;;;;7.79;66.49;100648.53;6072928;23;20013;-86
2023/10/16 01:54:47;;;;;;;5.15;2.97;;;;;;;7.78;66.28;100641.53;6072196;23;20022;-86
2023/10/16 01:57:14;;;;;;;;;;;;;;;7.60;66.09;100643.53;6073870;23;20037;-86
2023/10/16 01:59:43;;;;;;;3.33;2.63;;;;;;;7.72;66.00;100644.56;6095992;23;19983;-87
2023/10/16 02:02:12;;;;;;;3.95;2.60;;;;;;;7.70;66.06;100643.81;6096494;23;20109;-86
2023/10/16 02:04:40;;;;;;;7.50;2.05;;;;;;;7.68;65.38;100643.91;6120599;23;20024;-86
2023/10/16 02:07:08;;;;;;;3.17;1.80;;;;;;;7.71;64.93;100645.50;6120917;23;20089;-87
2023/10/16 02:09:39;;;;;;;3.88;1.65;;;;;;;7.63;65.09;100645.13;6120899;23;20097;-86
2023/10/16 02:12:18;;;;;;;3.17;1.70;;;;;;;7.70;65.36;100639.38;6096078;23;20026;-86
2023/10/16 02:14:45;;;;;;;3.53;2.15;;;;;;;7.64;66.10;100641.56;6097571;23;20339;-87
2023/10/16 02:17:21;;;;;;;3.28;2.25;;;;;;;7.63;66.25;100651.25;6074177;23;20021;-87
2023/10/16 02:19:48;;;;;;;3.25;2.30;;;;;;;7.61;66.34;100648.75;6122637;23;20092;-86
2023/10/16 02:22:16;;;;;;;5.68;2.60;;;;;;;7.57;66.31;100635.81;6121446;23;20347;-87
2023/10/16 02:24:44;;;;;;;15.82;4.05;;;;;;;7.54;66.63;100628.91;6074079;23;20043;-86
2023/10/16 02:27:12;;;;;;;4.78;2.90;;;;;;;7.52;66.97;100635.25;6074520;23;20025;-87
2023/10/16 02:29:45;;;;;;;7.32;3.05;;;;;;;7.51;66.60;100644.13;6121881;23;20021;-86
2023/10/16 02:32:13;;;;;;;6.18;3.13;;;;;;;7.43;66.77;100643.75;6122731;23;21758;-86
2023/10/16 02:34:41;;;;;;;8.77;3.60;;;;;;;7.47;67.35;100638.16;6097823;23;20064;-86
2023/10/16 02:37:14;;;;;;;10.43;3.50;;;;;;;7.41;67.60;100628.00;6097368;23;20393;-85
2023/10/16 02:39:50;;;;;;;;;;;;;;;7.13;68.88;100627.06;6097921;23;20029;-87
2023/10/16 02:42:19;;;;;;;5.25;3.78;;;;;;;7.21;68.75;100625.75;6121076;23;19991;-87
2023/10/16 02:44:47;;;;;;;12.27;3.65;;;;;;;7.26;68.58;100627.16;6098610;23;20033;-87
2023/10/16 02:47:21;;;;;;;6.07;3.13;;;;;;;7.27;68.50;100620.91;6098945;23;20013;-87
2023/10/16 02:49:48;;;;;;;10.93;3.92;;;;;;;7.18;68.90;100618.88;6146673;23;20105;-87
2023/10/16 02:52:19;;;;;;;6.50;3.00;;;;;;;7.25;68.97;100619.31;6147104;23;20018;-87
2023/10/16 02:54:46;;;;;;;23.52;3.97;;;;;;;7.15;68.89;100619.91;6122210;23;20030;-87
2023/10/16 02:57:17;;;;;;;6.95;3.47;;;;;;;7.15;69.06;100619.91;6098159;23;20466;-88
2023/10/16 02:59:45;;;;;;;4.13;3.10;;;;;;;7.21;68.83;100623.94;6122375;23;20393;-87
2023/10/16 03:02:22;;;;;;;6.47;3.22;;;;;;;7.18;68.51;100618.88;6098154;23;20025;-86
2023/10/16 03:04:51;;;;;;;7.53;3.78;;;;;;;7.21;68.53;100617.81;6124176;23;20022;-87
2023/10/16 03:07:22;;;;;;;6.53;3.78;;;;;;;7.13;68.58;100623.59;6098525;23;20096;-87
2023/10/16 03:09:50;;;;;;;4.40;3.15;;;;;;;7.09;69.04;100622.06;6123047;23;20025;-88
2023/10/16 03:12:19;;;;;;;7.28;3.72;;;;;;;7.21;68.55;100626.59;6121976;23;20352;-86
2023/10/16 03:14:58;;;;;;;6.47;3.38;;;;;;;7.17;68.68;100623.31;6147163;23;20041;-87
2023/10/16 03:19:58;;;;;;;14.23;3.85;;;;;;;7.15;68.52;100619.91;6098838;23;20040;-86
2023/10/16 03:22:25;;;;;;;5.88;3.08;;;;;;;7.03;68.52;100622.44;6097122;23;20032;-86
2023/10/16 03:24:59;;;;;;;10.30;3.95;;;;;;;6.99;68.47;100626.22;6122341;23;20029;-87
2023/10/16 03:27:29;;;;;;;5.05;3.63;;;;;;;7.02;68.60;100624.25;6098770;23;20100;-86
2023/10/16 03:29:56;;;;;;;6.53;3.97;;;;;;;7.05;68.94;100623.22;6122468;23;20505;-86
2023/10/16 03:32:39;;;;;;;10.38;3.60;;;;;;;6.96;68.77;100619.31;6097367;23;20052;-88
2023/10/16 03:35:09;;;;;;;6.15;3.63;;;;;;;6.99;68.95;100611.22;6120487;23;20021;-87
2023/10/16 03:37:35;;;;;;;6.55;3.65;;;;;;;6.99;68.83;100626.22;6096191;23;20029;-87
2023/10/16 03:40:04;;;;;;;8.50;3.30;;;;;;;6.97;68.66;100621.00;6072520;23;20030;-86
2023/10/16 03:42:34;;;;;;;3.38;2.35;;;;;;;6.95;67.72;100628.19;6110177;23;20056;-87
2023/10/16 03:45:02;;;;;;;4.38;3.00;;;;;;;6.87;67.38;100615.47;6083205;23;20056;-87
2023/10/16 03:47:32;;;;;;;4.80;2.70;;;;;;;6.85;67.50;100611.22;6096418;23;20025;-86
2023/10/16 03:50:00;;;;;;;4.70;2.70;;;;;;;6.83;67.40;100619.22;6120516;23;20024;-87
2023/10/16 03:52:29;;;;;;;5.68;2.97;;;;;;;6.87;67.67;100619.88;6095693;23;20017;-87
2023/10/16 03:54:56;;;;;;;4.60;2.97;;;;;;;6.96;67.83;100611.41;6096641;23;20447;-86
2023/10/16 03:57:23;;;;;;;12.30;3.70;;;;;;;6.96;67.39;100616.69;6118307;23;20084;-86
2023/10/16 03:59:51;;;;;;;7.30;3.03;;;;;;;6.86;66.94;100611.09;6096394;23;20033;-87
2023/10/16 04:02:23;;;;;;;5.10;3.03;;;;;;;6.84;66.93;100612.97;6093868;23;20021;-87
2023/10/16 04:04:54;;;;;;;5.35;3.50;;;;;;;6.76;67.34;100617.88;6117153;23;20100;-86
2023/10/16 04:07:22;;;;;;;16.38;4.20;;;;;;;6.67;67.36;100623.72;6032807;23;20498;-87
2023/10/16 04:09:52;;;;;;;7.43;4.00;;;;;;;6.63;67.83;100615.13;6079655;23;20022;-88
2023/10/16 04:12:21;;;;;;;5.95;3.28;;;;;;;6.63;67.76;100616.91;6009360;23;20520;-90
2023/10/16 04:15:04;;;;;;;7.57;3.75;;;;;;;6.63;67.48;100616.91;6078787;23;20025;-89
2023/10/16 04:17:38;;;;;;;5.10;3.28;;;;;;;6.65;67.77;100610.63;6084875;23;20033;-87
2023/10/16 04:22:58;;;;;;;6.53;3.75;;;;;;;6.63;67.40;100606.38;6101001;23;20024;-86
2023/10/16 04:25:33;;;;;;;10.25;4.15;;;;;;;6.64;67.01;100597.50;6097823;23;22245;-87
2023/10/16 04:28:18;;;;;;;5.28;3.45;;;;;;;6.65;66.99;100607.13;6098196;23;20036;-86
2023/10/16 04:30:47;;;;;;;9.50;4.55;;;;;;;6.53;67.01;100595.50;6076329;23;20019;-87
2023/10/16 04:33:23;;;;;;;9.70;4.93;;;;;;;6.47;67.16;100599.34;6073622;23;20053;-88
2023/10/16 04:38:30;;;;;;;10.73;4.60;;;;;;;6.52;67.11;100584.09;6120511;23;20053;-88
2023/10/16 04:44:21;;;;;;;9.20;4.90;;;;;;;6.56;67.46;100576.84;6144126;23;20032;-86
2023/10/16 04:49:28;;;;;;;16.23;5.40;;;;;;;6.58;66.73;100574.97;6144009;23;20045;-85
2023/10/16 04:52:06;;;;;;;14.40;6.65;;;;;;;6.57;66.50;100572.44;6097413;23;20025;-86
2023/10/16 05:00:12;;;;;;;20.08;7.20;;;;;;;6.50;67.04;100571.94;6146255;23;20048;-85
2023/10/16 05:02:52;;;;;;;22.23;9.77;;;;;;;6.50;67.00;100567.50;6144735;23;20025;-85
2023/10/16 05:10:51;;;;;;;21.42;8.75;;;;;;;6.45;66.97;100569.56;6124514;23;20354;-85
2023/10/16 05:13:37;;;;;;;21.60;8.05;;;;;;;6.46;67.05;100571.28;6117171;23;20036;-86
2023/10/16 05:22:02;;;;;;;13.73;6.22;;;;;;;6.35;67.04;100564.94;6114610;23;20045;-86
2023/10/16 06:14:20;;;;;;;21.05;10.55;;;;;;;6.33;67.42;100580.00;6121831;23;20630;-87
2023/10/16 06:16:53;;;;;;;12.25;6.65;;;;;;;6.33;67.61;100577.38;6093999;23;20032;-86
2023/10/16 06:19:22;;;;;;;12.60;5.97;;;;;;;6.26;68.04;100590.09;6120093;23;20547;-86
2023/10/16 06:22:06;;;;;;;12.52;5.35;;;;;;;6.23;67.90;100591.13;6118265;23;20480;-87
2023/10/16 06:24:35;;;;;;;10.23;6.00;;;;;;;6.16;67.99;100588.91;6096373;23;20084;-86
2023/10/16 06:27:19;;;;;;;13.50;6.15;;;;;;;6.13;68.30;100589.06;6094728;23;20033;-86
2023/10/16 06:29:49;;;;;;;13.98;5.38;;;;;;;6.11;68.73;100594.47;6143898;23;20021;-87
2023/10/16 06:32:20;;;;;;;12.38;5.57;;;;;;;6.11;68.83;100604.13;6118062;23;20024;-87
2023/10/16 06:35:07;;;;;;;11.57;4.82;;;;;;;5.97;69.04;100595.22;6070519;23;20033;-87
2023/10/16 06:37:38;;;;;;;14.18;4.47;;;;;;;6.04;68.81;100590.47;6093520;23;20022;-86
2023/10/16 06:40:15;;;;;;;8.70;4.70;;;;;;;6.08;68.53;100590.22;6141757;23;20041;-86
2023/10/16 06:42:46;;;;;;;11.32;4.93;;;;;;;6.11;68.41;100604.13;6095911;23;20092;-87
2023/10/16 06:45:19;;;;;;;10.35;4.90;;;;;;;6.15;68.50;100598.59;6094533;23;20025;-86
2023/10/16 06:47:49;;;;;;;6.50;3.80;;;;;;;6.17;68.98;100602.00;6118797;23;20080;-87
2023/10/16 06:52:50;;;;;;;8.77;4.22;;;;;;;6.23;68.06;100599.03;6144255;23;20027;-87
2023/10/16 06:55:17;;;;;;;10.50;4.70;;;;;;;6.23;68.29;100599.03;6117510;23;20025;-86
2023/10/16 06:57:44;;;;;;;12.32;4.57;;;;;;;6.21;68.33;100600.06;6094052;23;20495;-88
2023/10/16 07:00:32;;;;;;;10.18;4.93;;;;;;;6.27;68.98;100600.53;6070763;23;20536;-87
2023/10/16 07:03:09;;;;;;;8.23;5.25;;;;;;;6.33;69.31;100601.09;6096676;23;20623;-86
2023/10/16 07:05:42;;;;;;;12.98;5.75;;;;;;;6.29;68.99;100598.66;6095024;23;20076;-86
2023/10/16 07:08:20;;;;;;;8.93;4.72;;;;;;;6.33;69.42;100595.84;6093981;23;20033;-87
2023/10/16 07:10:49;;;;;;;9.77;5.20;;;;;;;6.32;69.46;100600.25;6117232;23;20108;-87
2023/10/16 07:13:26;;;;;;;12.65;5.93;;;;;;;6.24;69.52;100597.22;6093063;23;20029;-86
2023/10/16 07:16:01;;;;;;;10.93;5.65;;;;;;;6.26;69.88;100598.00;6118737;23;20021;-86
2023/10/16 07:18:32;;;;;;;14.07;6.10;;;;;;;6.33;69.64;100599.31;6140508;23;20048;-87
2023/10/16 07:20:59;;;;;;;11.48;5.43;;;;;;;6.38;69.92;100597.25;6141217;23;20072;-86
2023/10/16 07:23:29;;;;;;;7.03;4.22;;;;;;;6.48;69.72;100592.28;6116783;23;20021;-86
2023/10/16 07:25:58;;;;;;;10.70;5.95;;;;;;;6.40;69.29;100583.97;6093456;23;20025;-87
2023/10/16 07:28:26;;;;;;;11.57;6.22;;;;;;;6.47;69.21;100596.72;6091561;23;20029;-86
2023/10/16 07:30:58;;;;;;;10.20;6.10;;;;;;;6.51;69.16;100592.09;6116096;23;20084;-86
2023/10/16 07:33:27;;;;;;;12.43;5.15;;;;;;;6.50;68.92;100593.91;6092124;23;20045;-86
2023/10/16 07:35:55;;;;;;;10.35;4.68;;;;;;;6.52;69.05;100596.47;6091522;23;20095;-87
2023/10/16 07:38:26;;;;;;;10.55;5.18;;;;;;;6.56;68.50;100586.56;6116928;23;20155;-86
2023/10/16 07:40:59;;;;;;;10.30;5.10;;;;;;;6.61;68.32;100582.69;6092541;23;20126;-86
2023/10/16 07:43:28;;;;;;;13.45;6.40;;;;;;;6.63;68.61;100588.72;6115142;23;20021;-86
2023/10/16 07:48:51;;;;;;;13.30;5.40;;;;;;;6.63;68.62;100580.81;6094022;23;20030;-86
2023/10/16 07:51:20;;;;;;;16.20;6.03;;;;;;;6.69;68.98;100577.81;6117767;23;20029;-86
2023/10/16 07:53:51;;;;;;;10.07;5.65;;;;;;;6.76;68.56;100569.53;6115404;23;20052;-86
2023/10/16 07:59:06;;;;;;;;;;;;;;;6.66;69.39;100579.78;6117802;23;20096;-87
2023/10/16 08:04:35;;;;;;;14.35;5.90;;;;;;;6.86;69.50;100573.31;6121347;23;20021;-86
2023/10/16 08:07:08;;;;;;;11.10;5.75;;;;;;;6.92;69.51;100572.91;6117196;23;20525;-87
2023/10/16 08:12:34;;;;;;;15.05;6.55;;;;;;;7.01;69.54;100582.91;6116112;23;20022;-87
2023/10/16 08:15:14;;;;;;;13.30;6.22;;;;;;;7.04;69.89;100573.97;6072505;23;20399;-87
2023/10/16 08:17:44;;;;;;;10.57;5.68;;;;;;;7.12;70.00;100580.47;6116939;23;20033;-86
2023/10/16 08:20:17;;;;;;;15.60;6.57;;;;;;;7.15;70.14;100584.72;6092744;23;20105;-86
2023/10/16 08:22:45;;;;;;;11.00;5.75;;;;;;;7.21;70.25;100586.97;6091785;23;20428;-86
2023/10/16 08:25:30;;;;;;;18.15;5.45;;;;;;;7.20;70.03;100585.28;6116304;23;20021;-86
2023/10/16 08:27:58;;;;;;;9.25;5.63;;;;;;;7.23;70.34;100585.09;6119628;23;20034;-86
2023/10/16 08:30:48;;;;;;;12.27;6.88;;;;;;;7.29;70.47;100592.63;6115921;23;20029;-87
2023/10/16 08:33:16;;;;;;;10.40;5.13;;;;;;;7.30;70.81;100586.41;6095018;23;20021;-87
2023/10/16 08:35:45;;;;;;;9.20;5.65;;;;;;;7.33;70.53;100591.50;6092791;23;20100;-86
2023/10/16 08:38:20;;;;;;;9.07;5.93;;;;;;;7.41;70.57;100590.16;6116598;23;20032;-86
2023/10/16 08:40:57;;;;;;;11.95;5.93;;;;;;;7.39;70.74;100587.59;6117226;23;20047;-86
2023/10/16 08:43:52;;;;;;;12.60;6.22;;;;;;;7.44;70.33;100588.16;6092400;23;20104;-86
2023/10/16 08:46:30;;;;;;;9.32;5.68;;;;;;;7.44;70.67;100590.81;6120656;23;20022;-86
2023/10/16 08:49:00;;;;;;;11.10;6.20;;;;;;;7.47;70.63;100592.41;6069968;23;20366;-86
2023/10/16 08:51:28;;;;;;;11.70;6.35;;;;;;;7.49;70.72;100590.53;6092678;23;20139;-86
2023/10/16 08:54:03;;;;;;;15.02;6.30;;;;;;;7.51;71.02;100591.28;6116410;23;20029;-86
2023/10/16 08:56:31;;;;;;;10.65;5.72;;;;;;;7.52;71.03;100592.97;6115871;23;20053;-86
2023/10/16 08:59:01;;;;;;;12.70;6.13;;;;;;;7.56;71.23;100594.47;6116669;23;20033;-86
2023/10/16 09:01:29;;;;;;;9.90;6.53;;;;;;;7.57;71.05;100594.38;6116131;23;20084;-87
2023/10/16 09:04:06;;;;;;;17.27;5.97;;;;;;;7.60;71.20;100596.81;6115605;23;20401;-86
2023/10/16 09:06:36;;;;;;;10.77;5.95;;;;;;;7.64;71.28;100594.00;6116753;23;20024;-86
2023/10/16 09:09:13;;;;;;;13.50;6.72;;;;;;;7.65;71.23;100588.59;6139870;23;20057;-86
2023/10/16 09:11:44;;;;;;;9.73;6.07;;;;;;;7.70;71.43;100589.13;6091865;23;20052;-87
2023/10/16 09:14:17;;;;;;;10.93;5.78;;;;;;;7.73;71.42;100599.50;6115902;23;20029;-86
2023/10/16 09:16:48;;;;;;;10.43;6.57;;;;;;;7.78;71.43;100580.72;6140415;23;20318;-87
2023/10/16 09:19:15;;;;;;;12.98;6.10;;;;;;;7.82;71.56;100580.41;6091948;23;20087;-86
2023/10/16 09:21:43;;;;;;;13.07;6.53;;;;;;;7.85;71.79;100579.38;6116432;23;20817;-86
2023/10/16 09:24:14;;;;;;;10.93;6.20;;;;;;;7.91;71.94;100580.75;6139661;23;20737;-86
2023/10/16 09:26:44;;;;;;;16.10;7.85;;;;;;;7.97;72.08;100575.94;6091489;23;20021;-86
2023/10/16 09:29:14;;;;;;;12.68;6.38;;;;;;;7.99;71.86;100576.69;6092842;23;20029;-86
2023/10/16 09:31:45;;;;;;;15.50;6.90;;;;;;;8.01;71.92;100564.22;6092217;23;20907;-86
2023/10/16 09:34:16;;;;;;;9.00;5.57;;;;;;;8.04;71.80;100571.94;6116331;23;20029;-86
2023/10/16 09:36:48;;;;;;;10.30;5.28;;;;;;;8.08;71.68;100569.91;6092328;23;20084;-86
2023/10/16 09:39:19;;;;;;;11.40;5.88;;;;;;;8.13;71.30;100570.47;6091591;23;20506;-86
2023/10/16 09:41:48;;;;;;;8.93;5.93;;;;;;;8.16;71.30;100570.25;6116288;23;20025;-87
2023/10/16 09:44:36;;;;;;;11.55;5.38;;;;;;;8.21;71.50;100562.84;6115622;23;20033;-86
2023/10/16 09:47:25;;;;;;;10.57;5.93;;;;;;;8.23;71.75;100566.25;6095653;23;20101;-86
2023/10/16 09:50:00;;;;;;;11.13;4.57;;;;;;;8.29;71.68;100562.34;6119344;23;20043;-86
2023/10/16 09:52:33;;;;;;;11.38;5.55;;;;;;;8.36;71.76;100553.03;6092285;23;20105;-86
2023/10/16 09:55:00;;;;;;;16.90;5.90;;;;;;;8.41;71.78;100544.84;6091884;23;20473;-87
2023/10/16 09:57:32;;;;;;;10.23;5.72;;;;;;;8.44;71.75;100545.47;6091834;23;20037;-86
2023/10/16 10:00:23;;;;;;;9.10;5.57;;;;;;;8.49;71.72;100539.84;6068230;23;20037;-86
2023/10/16 10:02:51;;;;;;;8.43;5.10;;;;;;;8.54;71.60;100542.19;6120124;23;20112;-86
2023/10/16 10:05:22;;;;;;;14.13;5.50;;;;;;;8.55;71.82;100531.50;6114891;23;20026;-86
2023/10/16 10:07:49;;;;;;;10.45;5.00;;;;;;;8.58;71.35;100527.81;6115891;23;20585;-86
2023/10/16 10:13:15;;;;;;;5.90;3.78;;;;;;;8.67;71.44;100521.84;6139368;23;20028;-87
2023/10/16 10:15:45;;;;;;;7.53;3.72;;;;;;;8.69;71.19;100523.44;6115915;23;20550;-87
2023/10/16 10:18:32;;;;;;;7.63;4.43;;;;;;;8.74;70.52;100524.94;6089346;23;20025;-87
2023/10/16 10:21:01;;;;;;;8.32;3.85;;;;;;;8.73;70.56;100516.16;6116830;23;20029;-86
2023/10/16 10:23:32;;;;;;;5.95;3.00;;;;;;;8.77;70.51;100509.66;6113980;23;20029;-86
2023/10/16 10:26:01;;;;;;;5.78;3.47;;;;;;;8.81;70.86;100515.59;6115675;23;20108;-87
2023/10/16 10:28:32;;;;;;;5.22;3.30;;;;;;;8.85;70.50;100522.38;6113501;23;20028;-87
2023/10/16 10:31:02;;;;;;;8.50;3.25;;;;;;;8.85;70.39;100512.66;6067912;23;20025;-86
2023/10/16 10:33:56;;;;;;;5.82;2.90;;;;;;;8.85;69.80;100512.66;6114057;23;20097;-86
2023/10/16 10:36:36;;;;;;;6.00;2.50;;;;;;;8.89;69.19;100510.63;6112952;23;20099;-87
2023/10/16 10:39:22;;;;;;;5.43;2.90;;;;;;;8.90;68.83;100507.88;6116066;23;20025;-87
2023/10/16 10:41:51;;;;;;;4.25;2.35;;;;;;;8.98;69.18;100507.31;6116889;23;20764;-87
2023/10/16 10:44:19;;;;;;;3.13;2.40;;;;;;;8.98;68.66;100501.16;6114571;23;20088;-86
2023/10/16 10:46:53;;;;;;;3.88;1.95;;;;;;;8.99;68.47;100494.91;6091245;23;20357;-86
2023/10/16 10:49:33;;;;;;;1.83;1.60;;;;;;;8.94;67.10;100487.28;6094378;23;20122;-86
2023/10/16 10:52:01;;;;;;;3.65;2.10;;;;;;;9.03;67.64;100486.66;6091806;23;20029;-86
2023/10/16 10:54:28;;;;;;;2.72;1.38;;;;;;;9.04;67.13;100479.53;6140115;23;20524;-87
2023/10/16 10:56:59;;;;;;;2.90;1.67;;;;;;;9.09;66.51;100478.25;6090172;23;20715;-86
2023/10/16 10:59:41;;;;;;;2.88;1.42;;;;;;;9.07;64.54;100464.25;6117999;23;20037;-87
2023/10/16 11:04:53;;;;;;;4.20;1.30;;;;;;;9.13;64.32;100471.78;6139633;23;20029;-86
2023/10/16 11:07:39;;;;;;;2.50;1.58;;;;;;;9.20;64.34;100466.03;6116838;23;20044;-87
2023/10/16 11:10:07;;;;;;;3.83;1.77;;;;;;;9.23;64.41;100458.69;6117034;23;20045;-86
2023/10/16 11:12:34;;;;;;;3.72;1.73;;;;;;;9.22;62.30;100453.53;6092693;23;22178;-87
2023/10/16 11:15:05;;;;;;;3.40;1.83;;;;;;;9.22;62.99;100450.88;6091549;23;20773;-86
2023/10/16 11:17:34;;;;;;;4.38;1.90;;;;;;;9.23;62.79;100445.44;6068301;23;20021;-87
2023/10/16 11:22:44;;;;;;;3.80;1.70;;;;;;;9.24;62.85;100433.91;6093795;23;20346;-88
2023/10/16 11:25:13;;;;;;;3.95;1.80;;;;;;;9.29;63.32;100430.91;6114085;23;20076;-87
2023/10/16 11:27:43;;;;;;;1.60;1.50;;;;;;;9.29;61.54;100426.47;6114653;23;20026;-86
2023/10/16 11:30:18;;;;;;;6.15;1.80;;;;;;;9.34;62.66;100421.66;6066523;23;20052;-86
2023/10/16 11:32:49;;;;;;;4.00;1.60;;;;;;;9.34;60.79;100419.00;6068720;23;20033;-86
2023/10/16 11:35:17;;;;;;;2.50;1.45;;;;;;;9.34;62.20;100418.19;6091186;23;20429;-88
2023/10/16 11:37:50;;;;;;;2.45;1.50;;;;;;;9.39;62.43;100416.03;6090080;23;20084;-87
2023/10/16 11:40:19;;;;;;;3.10;1.55;;;;;;;9.44;62.89;100418.31;6116650;23;20026;-87
2023/10/16 11:42:48;;;;;;;6.00;1.90;;;;;;;9.52;62.42;100411.50;6091257;23;20021;-87
2023/10/16 11:45:20;;;;;;;4.03;1.85;;;;;;;9.49;62.87;100401.13;6091645;23;20100;-87
2023/10/16 11:48:18;;;;;;;3.85;1.98;;;;;;;9.53;61.88;100405.22;6091595;23;20026;-87
2023/10/16 11:50:40;;;;;;;2.00;1.60;;;;;;;9.55;62.24;100395.34;6119879;23;20813;-87
2023/10/16 11:53:07;;;;;;;6.20;1.60;;;;;;;9.59;62.11;100400.41;6091788;23;20025;-87
2023/10/16 11:55:38;;;;;;;2.95;1.42;;;;;;;9.63;61.87;100394.78;6114623;23;20047;-87
2023/10/16 11:58:11;;;;;;;2.00;1.48;;;;;;;9.67;61.39;100396.25;6066863;23;20025;-87
2023/10/16 12:00:45;;;;;;;3.25;1.70;;;;;;;9.67;60.68;100393.59;6067727;23;20308;-87
2023/10/16 12:03:15;;;;;;;6.03;2.53;;;;;;;9.73;61.55;100389.63;6067843;23;20032;-88
2023/10/16 12:05:42;;;;;;;4.75;1.52;;;;;;;9.75;61.01;100382.41;6067307;23;20528;-87
2023/10/16 12:08:10;;;;;;;2.50;1.55;;;;;;;9.78;60.34;100375.03;6090916;23;20064;-87
2023/10/16 12:10:37;;;;;;;1.63;1.38;;;;;;;9.83;61.07;100376.50;6091840;23;20045;-87
2023/10/16 12:13:04;;;;;;;4.95;1.42;;;;;;;9.87;61.30;100370.84;6140854;23;20025;-87
2023/10/16 12:15:31;;;;;;;2.33;1.20;;;;;;;9.92;61.13;100371.34;6114165;23;20037;-88
2023/10/16 12:18:01;;;;;;;3.58;1.48;;;;;;;9.93;60.65;100367.72;6089288;23;20840;-88
2023/10/16 12:20:28;;;;;;;4.97;2.22;;;;;;;9.97;60.36;100357.69;6090138;23;20034;-87
2023/10/16 12:22:54;;;;;;;3.38;1.73;;;;;;;9.98;60.12;100360.25;6115326;23;20041;-87
2023/10/16 12:25:23;;;;;;;2.95;1.35;;;;;;;10.02;60.24;100354.69;6067317;23;20039;-86
2023/10/16 12:27:53;;;;;;;3.22;1.40;;;;;;;10.05;60.46;100357.09;6090073;23;20033;-87
2023/10/16 12:30:20;;;;;;;2.22;1.55;;;;;;;10.07;60.87;100349.88;6116413;23;20033;-87
2023/10/16 12:32:47;;;;;;;2.15;1.33;;;;;;;10.12;61.34;100337.09;6115015;23;20084;-87
2023/10/16 12:35:17;;;;;;;2.30;1.77;;;;;;;10.13;61.46;100336.16;6138760;23;20048;-87
2023/10/16 12:37:45;;;;;;;4.03;1.70;;;;;;;10.16;61.16;100336.75;6113922;23;20035;-87
2023/10/16 12:40:27;;;;;;;1.25;1.17;;;;;;;10.18;61.21;100340.13;6114211;23;20029;-88
2023/10/16 12:42:55;;;;;;;1.83;1.60;;;;;;;10.20;60.96;100327.59;6093024;23;20053;-87
2023/10/16 12:45:22;;;;;;;2.10;1.67;;;;;;;10.23;61.12;100315.88;6090152;23;20036;-87
2023/10/16 12:47:51;;;;;;;3.85;1.58;;;;;;;10.26;60.85;100315.63;6115257;23;20509;-88
2023/10/16 12:50:26;;;;;;;2.38;1.40;;;;;;;10.27;60.82;100313.81;6066792;23;20619;-87
2023/10/16 12:52:57;;;;;;;3.00;1.33;;;;;;;10.28;60.41;100312.88;6090754;23;20403;-87
2023/10/16 12:55:25;;;;;;;2.90;1.48;;;;;;;10.34;60.89;100313.22;6064207;23;20025;-86
2023/10/16 12:57:52;;;;;;;2.10;1.60;;;;;;;10.33;60.88;100311.56;6114906;23;20076;-87
2023/10/16 13:00:21;;;;;;;3.67;1.58;;;;;;;10.33;59.71;100310.69;6090302;23;20088;-87
2023/10/16 13:02:49;;;;;;;1.73;1.20;;;;;;;10.30;60.11;100306.47;6090126;23;20502;-87
2023/10/16 13:05:17;;;;;;;1.48;1.38;;;;;;;10.32;60.18;100299.22;6067069;23;20033;-86
2023/10/16 13:07:45;;;;;;;3.85;1.50;;;;;;;10.33;59.66;100295.63;6137733;23;20021;-87
2023/10/16 13:10:25;;;;;;;2.67;1.35;;;;;;;10.32;59.36;100298.41;6090028;23;20082;-87
2023/10/16 13:12:53;;;;;;;2.85;1.27;;;;;;;10.33;59.18;100302.72;6091302;23;20018;-87
2023/10/16 13:15:29;;;;;;;2.75;1.55;;;;;;;10.33;59.01;100303.59;6089302;23;20029;-87
2023/10/16 13:17:56;;;;;;;2.53;1.40;;;;;;;10.33;58.70;100303.59;6089581;23;20096;-86
2023/10/16 13:20:27;;;;;;;1.88;1.30;;;;;;;10.31;57.46;100294.06;6138950;23;20358;-87
2023/10/16 13:22:56;;;;;;;1.40;1.30;;;;;;;10.28;57.54;100287.19;6090857;23;20029;-87
2023/10/16 13:25:34;;;;;;;1.85;1.20;;;;;;;10.22;56.60;100315.00;6114168;23;20041;-87
2023/10/16 13:28:03;;;;;;;2.08;1.40;;;;;;;10.25;57.27;100283.88;6043169;23;20068;-86
2023/10/16 13:30:31;;;;;;;3.72;1.67;;;;;;;10.24;57.67;100277.75;6090837;23;20022;-87
2023/10/16 13:33:06;;;;;;;2.78;1.23;;;;;;;10.25;58.25;100286.53;6089667;23;20021;-87
2023/10/16 13:35:38;;;;;;;2.63;1.50;;;;;;;10.25;58.53;100284.72;6114137;23;20041;-87
2023/10/16 13:38:07;;;;;;;3.03;1.50;;;;;;;10.26;58.62;100282.94;6089594;23;20044;-86